Longwood, Wisconsin
Current Conditions -  °F | °C
As of 1:55 PM on Friday 19 Dec 2014 (Local Time) from KMDZ Reporting Station
Overcast Overcast  
Wind Chill: 12°   Ceiling: 400
Heat Index: 21°   Visibility: 7mi
Dew Point: 20°   Wind: 8mph
Humidity: 95%   Direction: 190°S
Pressure: 30.22"   Gusts: NA
Location:  45.0116°N, 90.6109°W
Report Text: KMDZ 191955Z AUTO 19007KT 7SM OVC004 M06/M07 A3022 RMK AO2 T10601067
Loading
Personal Weather Stations






























Interactive Weather Map New forecast layout! Learn more

10-Day Weather Forecast

Advertisements
Track Severe Weather on mobile